sensor_id;sensor_type;location;lat;lon;timestamp;temperature;humidity
827;DHT22;395;48.132;11.608;2023-02-28T00:00:17;1.70;1.00
827;DHT22;395;48.132;11.608;2023-02-28T00:02:44;1.60;1.00
827;DHT22;395;48.132;11.608;2023-02-28T00:05:11;1.70;1.00
827;DHT22;395;48.132;11.608;2023-02-28T00:07:37;1.60;1.00
827;DHT22;395;48.132;11.608;2023-02-28T00:10:08;1.60;1.00
827;DHT22;395;48.132;11.608;2023-02-28T00:12:35;1.60;1.00
827;DHT22;395;48.132;11.608;2023-02-28T00:15:01;1.60;1.00
827;DHT22;395;48.132;11.608;2023-02-28T00:17:27;1.60;1.00
827;DHT22;395;48.132;11.608;2023-02-28T00:19:52;1.50;1.00
827;DHT22;395;48.132;11.608;2023-02-28T00:22:19;1.50;1.00
827;DHT22;395;48.132;11.608;2023-02-28T00:24:46;1.60;1.00
827;DHT22;395;48.132;11.608;2023-02-28T00:27:12;1.50;1.00
827;DHT22;395;48.132;11.608;2023-02-28T00:29:38;1.50;1.00
827;DHT22;395;48.132;11.608;2023-02-28T00:32:05;1.40;1.00
827;DHT22;395;48.132;11.608;2023-02-28T00:34:30;1.50;1.00
827;DHT22;395;48.132;11.608;2023-02-28T00:36:56;1.50;1.00
827;DHT22;395;48.132;11.608;2023-02-28T00:39:22;1.50;1.00
827;DHT22;395;48.132;11.608;2023-02-28T00:41:47;1.50;1.00
827;DHT22;395;48.132;11.608;2023-02-28T00:44:13;1.50;1.00
827;DHT22;395;48.132;11.608;2023-02-28T00:46:39;1.40;1.00
827;DHT22;395;48.132;11.608;2023-02-28T00:49:04;1.40;1.00
827;DHT22;395;48.132;11.608;2023-02-28T00:51:30;1.40;1.00
827;DHT22;395;48.132;11.608;2023-02-28T00:53:55;1.30;1.00
827;DHT22;395;48.132;11.608;2023-02-28T00:56:21;1.40;1.00
827;DHT22;395;48.132;11.608;2023-02-28T00:58:47;1.30;1.00
827;DHT22;395;48.132;11.608;2023-02-28T01:01:12;1.30;1.00
827;DHT22;395;48.132;11.608;2023-02-28T01:03:38;1.30;1.00
827;DHT22;395;48.132;11.608;2023-02-28T01:06:04;1.30;1.00
827;DHT22;395;48.132;11.608;2023-02-28T01:08:30;1.30;1.00
827;DHT22;395;48.132;11.608;2023-02-28T01:10:56;1.30;1.00
827;DHT22;395;48.132;11.608;2023-02-28T01:13:23;1.30;1.00
827;DHT22;395;48.132;11.608;2023-02-28T01:15:54;1.30;1.00
827;DHT22;395;48.132;11.608;2023-02-28T01:18:21;1.30;1.00
827;DHT22;395;48.132;11.608;2023-02-28T01:20:48;1.30;1.00
827;DHT22;395;48.132;11.608;2023-02-28T01:23:14;1.30;1.00
827;DHT22;395;48.132;11.608;2023-02-28T01:25:40;1.30;1.00
827;DHT22;395;48.132;11.608;2023-02-28T01:28:06;1.30;1.00
827;DHT22;395;48.132;11.608;2023-02-28T01:30:32;1.30;1.00
827;DHT22;395;48.132;11.608;2023-02-28T01:32:58;1.30;1.00
827;DHT22;395;48.132;11.608;2023-02-28T01:35:23;1.30;1.00
827;DHT22;395;48.132;11.608;2023-02-28T01:37:49;1.30;1.00
827;DHT22;395;48.132;11.608;2023-02-28T01:40:15;1.30;1.00
827;DHT22;395;48.132;11.608;2023-02-28T01:42:41;1.20;1.00
827;DHT22;395;48.132;11.608;2023-02-28T01:45:28;1.30;1.00
827;DHT22;395;48.132;11.608;2023-02-28T01:47:57;1.30;1.00
827;DHT22;395;48.132;11.608;2023-02-28T01:50:28;1.30;1.00
827;DHT22;395;48.132;11.608;2023-02-28T01:52:57;1.30;1.00
827;DHT22;395;48.132;11.608;2023-02-28T01:55:26;1.20;1.00
827;DHT22;395;48.132;11.608;2023-02-28T01:57:56;1.20;1.00
827;DHT22;395;48.132;11.608;2023-02-28T02:00:25;1.20;1.00
827;DHT22;395;48.132;11.608;2023-02-28T02:02:55;1.10;1.00
827;DHT22;395;48.132;11.608;2023-02-28T02:05:25;1.20;1.00
827;DHT22;395;48.132;11.608;2023-02-28T02:07:55;1.10;1.00
827;DHT22;395;48.132;11.608;2023-02-28T02:10:36;1.10;1.00
827;DHT22;395;48.132;11.608;2023-02-28T02:13:58;1.10;1.00
827;DHT22;395;48.132;11.608;2023-02-28T02:16:46;1.10;1.00
827;DHT22;395;48.132;11.608;2023-02-28T02:22:18;1.10;1.00
827;DHT22;395;48.132;11.608;2023-02-28T02:25:56;1.00;1.00
827;DHT22;395;48.132;11.608;2023-02-28T02:30:59;1.10;1.00
827;DHT22;395;48.132;11.608;2023-02-28T02:36:45;1.00;1.00
827;DHT22;395;48.132;11.608;2023-02-28T02:39:38;1.00;1.00
827;DHT22;395;48.132;11.608;2023-02-28T02:42:29;1.00;1.00
827;DHT22;395;48.132;11.608;2023-02-28T02:45:04;1.00;1.00
827;DHT22;395;48.132;11.608;2023-02-28T02:47:32;1.00;1.00
827;DHT22;395;48.132;11.608;2023-02-28T02:50:02;1.00;1.00
827;DHT22;395;48.132;11.608;2023-02-28T02:52:42;1.00;1.00
827;DHT22;395;48.132;11.608;2023-02-28T02:55:11;1.00;1.00
827;DHT22;395;48.132;11.608;2023-02-28T02:57:49;0.90;1.00
827;DHT22;395;48.132;11.608;2023-02-28T03:00:19;0.90;1.00
827;DHT22;395;48.132;11.608;2023-02-28T03:02:47;0.90;1.00
827;DHT22;395;48.132;11.608;2023-02-28T03:05:26;0.90;1.00
827;DHT22;395;48.132;11.608;2023-02-28T03:07:52;0.90;1.00
827;DHT22;395;48.132;11.608;2023-02-28T03:18:40;0.90;1.00
827;DHT22;395;48.132;11.608;2023-02-28T03:24:04;0.80;1.00
827;DHT22;395;48.132;11.608;2023-02-28T03:26:31;0.70;1.00
827;DHT22;395;48.132;11.608;2023-02-28T03:29:33;0.80;1.00
827;DHT22;395;48.132;11.608;2023-02-28T03:32:09;0.80;1.00
827;DHT22;395;48.132;11.608;2023-02-28T03:34:45;0.70;1.00
827;DHT22;395;48.132;11.608;2023-02-28T03:37:18;0.70;1.00
827;DHT22;395;48.132;11.608;2023-02-28T03:39:56;0.70;1.00
827;DHT22;395;48.132;11.608;2023-02-28T03:42:31;0.70;1.00
827;DHT22;395;48.132;11.608;2023-02-28T03:45:21;0.60;1.00
827;DHT22;395;48.132;11.608;2023-02-28T03:48:17;0.70;1.00
827;DHT22;395;48.132;11.608;2023-02-28T03:50:47;0.70;1.00
827;DHT22;395;48.132;11.608;2023-02-28T03:53:38;0.70;1.00
827;DHT22;395;48.132;11.608;2023-02-28T03:56:27;0.70;1.00
827;DHT22;395;48.132;11.608;2023-02-28T03:59:06;0.70;1.00
827;DHT22;395;48.132;11.608;2023-02-28T04:01:42;0.70;1.00
827;DHT22;395;48.132;11.608;2023-02-28T04:04:10;0.70;1.00
827;DHT22;395;48.132;11.608;2023-02-28T04:06:36;0.70;1.00
827;DHT22;395;48.132;11.608;2023-02-28T04:09:05;0.70;1.00
827;DHT22;395;48.132;11.608;2023-02-28T04:11:37;0.70;1.00
827;DHT22;395;48.132;11.608;2023-02-28T04:14:04;0.70;1.00
827;DHT22;395;48.132;11.608;2023-02-28T04:16:31;0.70;1.00
827;DHT22;395;48.132;11.608;2023-02-28T04:18:57;0.70;1.00
827;DHT22;395;48.132;11.608;2023-02-28T04:21:35;0.80;1.00
827;DHT22;395;48.132;11.608;2023-02-28T04:24:01;0.80;1.00
827;DHT22;395;48.132;11.608;2023-02-28T04:26:31;0.70;1.00
827;DHT22;395;48.132;11.608;2023-02-28T04:28:58;0.80;1.00
827;DHT22;395;48.132;11.608;2023-02-28T04:31:24;0.80;1.00
827;DHT22;395;48.132;11.608;2023-02-28T04:33:49;0.80;1.00
827;DHT22;395;48.132;11.608;2023-02-28T04:36:15;0.70;1.00
827;DHT22;395;48.132;11.608;2023-02-28T04:38:43;0.70;1.00
827;DHT22;395;48.132;11.608;2023-02-28T04:41:09;0.80;1.00
827;DHT22;395;48.132;11.608;2023-02-28T04:43:35;0.80;1.00
827;DHT22;395;48.132;11.608;2023-02-28T04:46:02;0.80;1.00
827;DHT22;395;48.132;11.608;2023-02-28T04:48:30;0.90;1.00
827;DHT22;395;48.132;11.608;2023-02-28T04:51:09;1.00;1.00
827;DHT22;395;48.132;11.608;2023-02-28T04:53:36;1.00;1.00
827;DHT22;395;48.132;11.608;2023-02-28T04:56:03;1.00;1.00
827;DHT22;395;48.132;11.608;2023-02-28T04:58:28;1.00;1.00
827;DHT22;395;48.132;11.608;2023-02-28T05:01:04;1.00;1.00
827;DHT22;395;48.132;11.608;2023-02-28T05:03:30;1.10;1.00
827;DHT22;395;48.132;11.608;2023-02-28T05:05:56;1.10;1.00
827;DHT22;395;48.132;11.608;2023-02-28T05:08:21;1.10;1.00
827;DHT22;395;48.132;11.608;2023-02-28T05:10:47;1.10;1.00
827;DHT22;395;48.132;11.608;2023-02-28T05:13:13;1.20;1.00
827;DHT22;395;48.132;11.608;2023-02-28T05:15:38;1.20;1.00
827;DHT22;395;48.132;11.608;2023-02-28T05:18:04;1.30;1.00
827;DHT22;395;48.132;11.608;2023-02-28T05:20:30;1.30;1.00
827;DHT22;395;48.132;11.608;2023-02-28T05:22:57;1.30;1.00
827;DHT22;395;48.132;11.608;2023-02-28T05:25:23;1.30;1.00
827;DHT22;395;48.132;11.608;2023-02-28T05:27:49;1.30;1.00
827;DHT22;395;48.132;11.608;2023-02-28T05:30:15;1.40;1.00
827;DHT22;395;48.132;11.608;2023-02-28T05:32:41;1.40;1.00
827;DHT22;395;48.132;11.608;2023-02-28T05:35:11;1.40;1.00
827;DHT22;395;48.132;11.608;2023-02-28T05:37:38;1.40;1.00
827;DHT22;395;48.132;11.608;2023-02-28T05:40:05;1.40;1.00
827;DHT22;395;48.132;11.608;2023-02-28T05:42:37;1.50;1.00
827;DHT22;395;48.132;11.608;2023-02-28T05:45:06;1.50;1.00
827;DHT22;395;48.132;11.608;2023-02-28T05:47:32;1.50;1.00
827;DHT22;395;48.132;11.608;2023-02-28T05:49:58;1.60;1.00
827;DHT22;395;48.132;11.608;2023-02-28T05:52:23;1.70;1.00
827;DHT22;395;48.132;11.608;2023-02-28T05:54:49;1.60;1.00
827;DHT22;395;48.132;11.608;2023-02-28T05:57:15;1.60;1.00
827;DHT22;395;48.132;11.608;2023-02-28T05:59:40;1.60;1.00
827;DHT22;395;48.132;11.608;2023-02-28T06:02:12;1.60;1.00
827;DHT22;395;48.132;11.608;2023-02-28T06:04:37;1.60;1.00
827;DHT22;395;48.132;11.608;2023-02-28T06:07:03;1.60;1.00
827;DHT22;395;48.132;11.608;2023-02-28T06:09:29;1.70;1.00
827;DHT22;395;48.132;11.608;2023-02-28T06:11:57;1.60;1.00
827;DHT22;395;48.132;11.608;2023-02-28T06:14:23;1.70;1.00
827;DHT22;395;48.132;11.608;2023-02-28T06:16:48;1.70;1.00
827;DHT22;395;48.132;11.608;2023-02-28T06:19:14;1.70;1.00
827;DHT22;395;48.132;11.608;2023-02-28T06:21:40;1.60;1.00
827;DHT22;395;48.132;11.608;2023-02-28T06:24:06;1.70;1.00
827;DHT22;395;48.132;11.608;2023-02-28T06:26:32;1.70;1.00
827;DHT22;395;48.132;11.608;2023-02-28T06:28:58;1.60;1.00
827;DHT22;395;48.132;11.608;2023-02-28T06:31:24;1.60;1.00
827;DHT22;395;48.132;11.608;2023-02-28T06:33:51;1.60;1.00
827;DHT22;395;48.132;11.608;2023-02-28T06:36:17;1.70;1.00
827;DHT22;395;48.132;11.608;2023-02-28T06:38:44;1.70;1.00
827;DHT22;395;48.132;11.608;2023-02-28T06:41:11;1.60;1.00
827;DHT22;395;48.132;11.608;2023-02-28T06:43:40;1.60;1.00
827;DHT22;395;48.132;11.608;2023-02-28T06:46:07;1.60;1.00
827;DHT22;395;48.132;11.608;2023-02-28T06:48:34;1.70;1.00
827;DHT22;395;48.132;11.608;2023-02-28T06:51:12;1.70;1.00
827;DHT22;395;48.132;11.608;2023-02-28T06:53:38;1.70;1.00
827;DHT22;395;48.132;11.608;2023-02-28T06:56:05;1.70;1.00
827;DHT22;395;48.132;11.608;2023-02-28T06:58:32;1.70;1.00
827;DHT22;395;48.132;11.608;2023-02-28T07:00:57;1.70;1.00
827;DHT22;395;48.132;11.608;2023-02-28T07:03:23;1.60;1.00
827;DHT22;395;48.132;11.608;2023-02-28T07:05:49;1.60;1.00
827;DHT22;395;48.132;11.608;2023-02-28T07:08:14;1.70;1.00
827;DHT22;395;48.132;11.608;2023-02-28T07:10:40;1.70;1.00
827;DHT22;395;48.132;11.608;2023-02-28T07:13:08;1.80;1.00
827;DHT22;395;48.132;11.608;2023-02-28T07:15:37;1.80;1.00
827;DHT22;395;48.132;11.608;2023-02-28T07:18:03;1.80;1.00
827;DHT22;395;48.132;11.608;2023-02-28T07:20:29;1.90;1.00
827;DHT22;395;48.132;11.608;2023-02-28T07:22:55;1.80;1.00
827;DHT22;395;48.132;11.608;2023-02-28T07:25:26;1.90;1.00
827;DHT22;395;48.132;11.608;2023-02-28T07:27:52;1.90;1.00
827;DHT22;395;48.132;11.608;2023-02-28T07:30:18;1.90;1.00
827;DHT22;395;48.132;11.608;2023-02-28T07:32:44;1.90;1.00
827;DHT22;395;48.132;11.608;2023-02-28T07:35:10;1.90;1.00
827;DHT22;395;48.132;11.608;2023-02-28T07:37:35;2.00;1.00
827;DHT22;395;48.132;11.608;2023-02-28T07:40:09;2.00;1.00
827;DHT22;395;48.132;11.608;2023-02-28T07:42:35;2.00;1.00
827;DHT22;395;48.132;11.608;2023-02-28T07:45:01;2.10;1.00
827;DHT22;395;48.132;11.608;2023-02-28T07:47:29;2.10;1.00
827;DHT22;395;48.132;11.608;2023-02-28T07:49:55;2.00;1.00
827;DHT22;395;48.132;11.608;2023-02-28T07:52:21;2.00;1.00
827;DHT22;395;48.132;11.608;2023-02-28T07:54:51;2.00;1.00
827;DHT22;395;48.132;11.608;2023-02-28T07:57:17;2.00;1.00
827;DHT22;395;48.132;11.608;2023-02-28T07:59:43;2.00;1.00
827;DHT22;395;48.132;11.608;2023-02-28T08:02:16;2.10;1.00
827;DHT22;395;48.132;11.608;2023-02-28T08:04:43;2.10;1.00
827;DHT22;395;48.132;11.608;2023-02-28T08:07:09;2.10;1.00
827;DHT22;395;48.132;11.608;2023-02-28T08:09:39;2.10;1.00
827;DHT22;395;48.132;11.608;2023-02-28T08:12:05;2.20;1.00
827;DHT22;395;48.132;11.608;2023-02-28T08:14:31;2.20;1.00
827;DHT22;395;48.132;11.608;2023-02-28T08:16:56;2.20;1.00
827;DHT22;395;48.132;11.608;2023-02-28T08:19:22;2.20;1.00
827;DHT22;395;48.132;11.608;2023-02-28T08:21:48;2.20;1.00
827;DHT22;395;48.132;11.608;2023-02-28T08:24:13;2.20;1.00
827;DHT22;395;48.132;11.608;2023-02-28T08:26:39;2.20;1.00
827;DHT22;395;48.132;11.608;2023-02-28T08:29:05;2.20;1.00
827;DHT22;395;48.132;11.608;2023-02-28T08:31:30;2.30;1.00
827;DHT22;395;48.132;11.608;2023-02-28T08:33:56;2.20;1.00
827;DHT22;395;48.132;11.608;2023-02-28T08:36:25;2.30;1.00
827;DHT22;395;48.132;11.608;2023-02-28T08:38:51;2.20;1.00
827;DHT22;395;48.132;11.608;2023-02-28T08:41:17;2.30;1.00
827;DHT22;395;48.132;11.608;2023-02-28T08:43:43;2.30;1.00
827;DHT22;395;48.132;11.608;2023-02-28T08:46:12;2.30;1.00
827;DHT22;395;48.132;11.608;2023-02-28T08:48:39;2.40;1.00
827;DHT22;395;48.132;11.608;2023-02-28T08:51:10;2.40;1.00
827;DHT22;395;48.132;11.608;2023-02-28T08:53:37;2.40;1.00
827;DHT22;395;48.132;11.608;2023-02-28T08:56:07;2.40;1.00
827;DHT22;395;48.132;11.608;2023-02-28T08:58:35;2.40;1.00
827;DHT22;395;48.132;11.608;2023-02-28T09:01:09;2.40;1.00
827;DHT22;395;48.132;11.608;2023-02-28T09:03:35;2.40;1.00
827;DHT22;395;48.132;11.608;2023-02-28T09:06:02;2.40;1.00
827;DHT22;395;48.132;11.608;2023-02-28T09:08:29;2.30;1.00
827;DHT22;395;48.132;11.608;2023-02-28T09:10:56;2.40;1.00
827;DHT22;395;48.132;11.608;2023-02-28T09:13:24;2.40;1.00
827;DHT22;395;48.132;11.608;2023-02-28T09:15:50;2.40;1.00
827;DHT22;395;48.132;11.608;2023-02-28T09:18:16;2.50;1.00
827;DHT22;395;48.132;11.608;2023-02-28T09:20:42;2.50;1.00
827;DHT22;395;48.132;11.608;2023-02-28T09:23:10;2.50;1.00
827;DHT22;395;48.132;11.608;2023-02-28T09:25:36;2.50;1.00
827;DHT22;395;48.132;11.608;2023-02-28T09:28:02;2.50;1.00
827;DHT22;395;48.132;11.608;2023-02-28T09:30:28;2.50;1.00
827;DHT22;395;48.132;11.608;2023-02-28T09:32:54;2.50;1.00
827;DHT22;395;48.132;11.608;2023-02-28T09:35:24;2.50;1.00
827;DHT22;395;48.132;11.608;2023-02-28T09:37:51;2.60;1.00
827;DHT22;395;48.132;11.608;2023-02-28T09:40:18;2.50;1.00
827;DHT22;395;48.132;11.608;2023-02-28T09:42:47;2.50;1.00
827;DHT22;395;48.132;11.608;2023-02-28T09:45:32;2.50;1.00
827;DHT22;395;48.132;11.608;2023-02-28T09:48:06;2.50;1.00
827;DHT22;395;48.132;11.608;2023-02-28T09:50:40;2.70;1.00
827;DHT22;395;48.132;11.608;2023-02-28T09:53:26;2.60;1.00
827;DHT22;395;48.132;11.608;2023-02-28T09:55:55;2.70;1.00
827;DHT22;395;48.132;11.608;2023-02-28T09:58:28;2.70;1.00
827;DHT22;395;48.132;11.608;2023-02-28T10:01:09;2.70;1.00
827;DHT22;395;48.132;11.608;2023-02-28T10:04:05;2.70;1.00
827;DHT22;395;48.132;11.608;2023-02-28T10:06:46;2.60;1.00
827;DHT22;395;48.132;11.608;2023-02-28T10:09:16;2.60;1.00
827;DHT22;395;48.132;11.608;2023-02-28T10:11:43;2.70;1.00
827;DHT22;395;48.132;11.608;2023-02-28T10:14:16;2.80;1.00
827;DHT22;395;48.132;11.608;2023-02-28T10:17:04;2.80;1.00
827;DHT22;395;48.132;11.608;2023-02-28T10:24:55;2.80;1.00
827;DHT22;395;48.132;11.608;2023-02-28T10:27:29;2.80;1.00
827;DHT22;395;48.132;11.608;2023-02-28T10:29:57;2.90;1.00
827;DHT22;395;48.132;11.608;2023-02-28T10:32:30;2.90;1.00
827;DHT22;395;48.132;11.608;2023-02-28T10:37:47;3.00;1.00
827;DHT22;395;48.132;11.608;2023-02-28T10:43:04;3.10;1.00
827;DHT22;395;48.132;11.608;2023-02-28T10:45:32;3.10;1.00
827;DHT22;395;48.132;11.608;2023-02-28T10:48:33;3.20;1.00
827;DHT22;395;48.132;11.608;2023-02-28T10:51:00;3.20;1.00
827;DHT22;395;48.132;11.608;2023-02-28T10:53:53;3.20;1.00
827;DHT22;395;48.132;11.608;2023-02-28T10:56:22;3.30;1.00
827;DHT22;395;48.132;11.608;2023-02-28T10:58:53;3.40;1.00
827;DHT22;395;48.132;11.608;2023-02-28T11:01:40;3.30;1.00
827;DHT22;395;48.132;11.608;2023-02-28T11:04:34;3.40;1.00
827;DHT22;395;48.132;11.608;2023-02-28T11:07:22;3.40;1.00
827;DHT22;395;48.132;11.608;2023-02-28T11:09:56;3.40;1.00
827;DHT22;395;48.132;11.608;2023-02-28T11:12:36;3.50;1.00
827;DHT22;395;48.132;11.608;2023-02-28T11:15:07;3.50;1.00
827;DHT22;395;48.132;11.608;2023-02-28T11:17:44;3.60;1.00
827;DHT22;395;48.132;11.608;2023-02-28T11:20:21;3.60;1.00
827;DHT22;395;48.132;11.608;2023-02-28T11:22:47;3.70;1.00
827;DHT22;395;48.132;11.608;2023-02-28T11:25:21;3.60;1.00
827;DHT22;395;48.132;11.608;2023-02-28T11:27:59;3.70;1.00
827;DHT22;395;48.132;11.608;2023-02-28T11:33:28;3.70;1.00
827;DHT22;395;48.132;11.608;2023-02-28T11:35:59;3.70;1.00
827;DHT22;395;48.132;11.608;2023-02-28T11:38:27;3.70;1.00
827;DHT22;395;48.132;11.608;2023-02-28T11:46:51;3.70;1.00
827;DHT22;395;48.132;11.608;2023-02-28T11:54:53;3.80;1.00
827;DHT22;395;48.132;11.608;2023-02-28T11:57:46;3.90;1.00
827;DHT22;395;48.132;11.608;2023-02-28T12:03:26;4.00;1.00
827;DHT22;395;48.132;11.608;2023-02-28T12:06:06;3.90;1.00
827;DHT22;395;48.132;11.608;2023-02-28T12:27:48;3.90;1.00
827;DHT22;395;48.132;11.608;2023-02-28T12:30:30;3.90;1.00
827;DHT22;395;48.132;11.608;2023-02-28T12:35:33;3.70;1.00
827;DHT22;395;48.132;11.608;2023-02-28T12:41:05;3.70;1.00
827;DHT22;395;48.132;11.608;2023-02-28T12:43:46;3.70;1.00
827;DHT22;395;48.132;11.608;2023-02-28T12:46:28;3.80;1.00
827;DHT22;395;48.132;11.608;2023-02-28T12:49:00;3.80;1.00
827;DHT22;395;48.132;11.608;2023-02-28T12:51:30;3.80;1.00
827;DHT22;395;48.132;11.608;2023-02-28T12:54:16;4.00;1.00
827;DHT22;395;48.132;11.608;2023-02-28T12:59:51;3.90;1.00
827;DHT22;395;48.132;11.608;2023-02-28T13:08:24;3.90;1.00
827;DHT22;395;48.132;11.608;2023-02-28T13:10:54;3.80;1.00
827;DHT22;395;48.132;11.608;2023-02-28T13:13:30;3.90;1.00
827;DHT22;395;48.132;11.608;2023-02-28T13:16:08;4.00;1.00
827;DHT22;395;48.132;11.608;2023-02-28T13:18:41;4.00;1.00
827;DHT22;395;48.132;11.608;2023-02-28T13:21:26;4.00;1.00
827;DHT22;395;48.132;11.608;2023-02-28T14:01:46;4.20;1.00
827;DHT22;395;48.132;11.608;2023-02-28T14:06:59;4.30;1.00
827;DHT22;395;48.132;11.608;2023-02-28T14:11:57;4.30;1.00
827;DHT22;395;48.132;11.608;2023-02-28T14:17:16;4.40;1.00
827;DHT22;395;48.132;11.608;2023-02-28T14:19:45;4.40;1.00
827;DHT22;395;48.132;11.608;2023-02-28T14:22:41;4.50;1.00
827;DHT22;395;48.132;11.608;2023-02-28T14:31:29;4.50;1.00
827;DHT22;395;48.132;11.608;2023-02-28T14:36:46;4.40;1.00
827;DHT22;395;48.132;11.608;2023-02-28T14:39:19;4.40;1.00
827;DHT22;395;48.132;11.608;2023-02-28T14:41:46;4.50;1.00
827;DHT22;395;48.132;11.608;2023-02-28T14:46:45;4.50;1.00
827;DHT22;395;48.132;11.608;2023-02-28T14:49:30;4.50;1.00
827;DHT22;395;48.132;11.608;2023-02-28T14:52:22;4.50;1.00
827;DHT22;395;48.132;11.608;2023-02-28T14:55:15;4.60;1.00
827;DHT22;395;48.132;11.608;2023-02-28T14:57:55;4.60;1.00
827;DHT22;395;48.132;11.608;2023-02-28T15:00:25;4.70;1.00
827;DHT22;395;48.132;11.608;2023-02-28T15:02:52;4.70;1.00
827;DHT22;395;48.132;11.608;2023-02-28T15:05:29;4.80;1.00
827;DHT22;395;48.132;11.608;2023-02-28T15:10:33;4.70;1.00
827;DHT22;395;48.132;11.608;2023-02-28T15:13:07;4.80;1.00
827;DHT22;395;48.132;11.608;2023-02-28T15:15:59;4.70;1.00
827;DHT22;395;48.132;11.608;2023-02-28T15:18:49;4.70;1.00
827;DHT22;395;48.132;11.608;2023-02-28T15:21:22;4.80;1.00
827;DHT22;395;48.132;11.608;2023-02-28T15:24:03;4.80;1.00
827;DHT22;395;48.132;11.608;2023-02-28T15:26:33;4.80;1.00
827;DHT22;395;48.132;11.608;2023-02-28T15:29:04;4.90;1.00
827;DHT22;395;48.132;11.608;2023-02-28T15:31:37;4.90;1.00
827;DHT22;395;48.132;11.608;2023-02-28T15:34:06;4.90;1.00
827;DHT22;395;48.132;11.608;2023-02-28T15:36:34;4.90;1.00
827;DHT22;395;48.132;11.608;2023-02-28T15:39:03;4.90;1.00
827;DHT22;395;48.132;11.608;2023-02-28T15:41:36;4.90;1.00
827;DHT22;395;48.132;11.608;2023-02-28T15:44:28;4.90;1.00
827;DHT22;395;48.132;11.608;2023-02-28T15:47:01;5.00;1.00
827;DHT22;395;48.132;11.608;2023-02-28T15:49:28;5.00;1.00
827;DHT22;395;48.132;11.608;2023-02-28T15:51:57;4.90;1.00
827;DHT22;395;48.132;11.608;2023-02-28T15:54:34;5.00;1.00
827;DHT22;395;48.132;11.608;2023-02-28T15:57:07;5.00;1.00
827;DHT22;395;48.132;11.608;2023-02-28T15:59:38;5.00;1.00
827;DHT22;395;48.132;11.608;2023-02-28T16:04:36;5.00;1.00
827;DHT22;395;48.132;11.608;2023-02-28T16:07:05;5.00;1.00
827;DHT22;395;48.132;11.608;2023-02-28T16:09:31;5.00;1.00
827;DHT22;395;48.132;11.608;2023-02-28T16:12:00;5.00;1.00
827;DHT22;395;48.132;11.608;2023-02-28T16:14:30;5.00;1.00
827;DHT22;395;48.132;11.608;2023-02-28T16:17:04;4.80;1.00
827;DHT22;395;48.132;11.608;2023-02-28T16:19:30;4.90;1.00
827;DHT22;395;48.132;11.608;2023-02-28T16:21:56;4.90;1.00
827;DHT22;395;48.132;11.608;2023-02-28T16:24:22;4.90;1.00
827;DHT22;395;48.132;11.608;2023-02-28T16:26:50;4.80;1.00
827;DHT22;395;48.132;11.608;2023-02-28T16:29:27;4.80;1.00
827;DHT22;395;48.132;11.608;2023-02-28T16:31:54;4.80;1.00
827;DHT22;395;48.132;11.608;2023-02-28T16:34:20;4.70;1.00
827;DHT22;395;48.132;11.608;2023-02-28T16:36:49;4.80;1.00
827;DHT22;395;48.132;11.608;2023-02-28T16:39:15;4.80;1.00
827;DHT22;395;48.132;11.608;2023-02-28T16:41:45;4.80;1.00
827;DHT22;395;48.132;11.608;2023-02-28T16:44:19;4.80;1.00
827;DHT22;395;48.132;11.608;2023-02-28T16:46:46;4.80;1.00
827;DHT22;395;48.132;11.608;2023-02-28T16:49:12;4.80;1.00
827;DHT22;395;48.132;11.608;2023-02-28T16:51:38;4.80;1.00
827;DHT22;395;48.132;11.608;2023-02-28T16:54:04;4.70;1.00
827;DHT22;395;48.132;11.608;2023-02-28T16:56:30;4.70;1.00
827;DHT22;395;48.132;11.608;2023-02-28T16:58:59;4.70;1.00
827;DHT22;395;48.132;11.608;2023-02-28T17:01:25;4.70;1.00
827;DHT22;395;48.132;11.608;2023-02-28T17:03:53;4.70;1.00
827;DHT22;395;48.132;11.608;2023-02-28T17:06:29;4.70;1.00
827;DHT22;395;48.132;11.608;2023-02-28T17:08:55;4.70;1.00
827;DHT22;395;48.132;11.608;2023-02-28T17:11:22;4.60;1.00
827;DHT22;395;48.132;11.608;2023-02-28T17:13:48;4.60;1.00
827;DHT22;395;48.132;11.608;2023-02-28T17:18:45;4.60;1.00
827;DHT22;395;48.132;11.608;2023-02-28T17:21:16;4.60;1.00
827;DHT22;395;48.132;11.608;2023-02-28T17:23:42;4.60;1.00
827;DHT22;395;48.132;11.608;2023-02-28T17:26:16;4.60;1.00
827;DHT22;395;48.132;11.608;2023-02-28T17:28:50;4.50;1.00
827;DHT22;395;48.132;11.608;2023-02-28T17:31:17;4.50;1.00
827;DHT22;395;48.132;11.608;2023-02-28T17:33:43;4.40;1.00
827;DHT22;395;48.132;11.608;2023-02-28T17:36:17;4.50;1.00
827;DHT22;395;48.132;11.608;2023-02-28T17:38:47;4.40;1.00
827;DHT22;395;48.132;11.608;2023-02-28T17:41:13;4.50;1.00
827;DHT22;395;48.132;11.608;2023-02-28T17:43:40;4.40;1.00
827;DHT22;395;48.132;11.608;2023-02-28T17:46:15;4.60;1.00
827;DHT22;395;48.132;11.608;2023-02-28T17:48:43;4.50;1.00
827;DHT22;395;48.132;11.608;2023-02-28T17:51:11;4.50;1.00
827;DHT22;395;48.132;11.608;2023-02-28T17:53:37;4.60;1.00
827;DHT22;395;48.132;11.608;2023-02-28T17:56:03;4.50;1.00
827;DHT22;395;48.132;11.608;2023-02-28T17:58:29;4.50;1.00
827;DHT22;395;48.132;11.608;2023-02-28T18:00:56;4.50;1.00
827;DHT22;395;48.132;11.608;2023-02-28T18:03:22;4.50;1.00
827;DHT22;395;48.132;11.608;2023-02-28T18:05:49;4.50;1.00
827;DHT22;395;48.132;11.608;2023-02-28T18:08:16;4.50;1.00
827;DHT22;395;48.132;11.608;2023-02-28T18:10:41;4.50;1.00
827;DHT22;395;48.132;11.608;2023-02-28T18:13:07;4.50;1.00
827;DHT22;395;48.132;11.608;2023-02-28T18:15:33;4.40;1.00
827;DHT22;395;48.132;11.608;2023-02-28T18:17:59;4.50;1.00
827;DHT22;395;48.132;11.608;2023-02-28T18:20:25;4.50;1.00
827;DHT22;395;48.132;11.608;2023-02-28T18:22:51;4.50;1.00
827;DHT22;395;48.132;11.608;2023-02-28T18:25:17;4.50;1.00
827;DHT22;395;48.132;11.608;2023-02-28T18:27:44;4.50;1.00
827;DHT22;395;48.132;11.608;2023-02-28T18:30:19;4.50;1.00
827;DHT22;395;48.132;11.608;2023-02-28T18:32:45;4.50;1.00
827;DHT22;395;48.132;11.608;2023-02-28T18:35:11;4.50;1.00
827;DHT22;395;48.132;11.608;2023-02-28T18:37:37;4.50;1.00
827;DHT22;395;48.132;11.608;2023-02-28T18:40:03;4.50;1.00
827;DHT22;395;48.132;11.608;2023-02-28T18:42:30;4.50;1.00
827;DHT22;395;48.132;11.608;2023-02-28T18:44:56;4.50;1.00
827;DHT22;395;48.132;11.608;2023-02-28T18:47:21;4.50;1.00
827;DHT22;395;48.132;11.608;2023-02-28T18:49:47;4.50;1.00
827;DHT22;395;48.132;11.608;2023-02-28T18:52:13;4.50;1.00
827;DHT22;395;48.132;11.608;2023-02-28T18:54:38;4.60;1.00
827;DHT22;395;48.132;11.608;2023-02-28T18:57:04;4.50;1.00
827;DHT22;395;48.132;11.608;2023-02-28T18:59:30;4.60;1.00
827;DHT22;395;48.132;11.608;2023-02-28T19:01:55;4.50;1.00
827;DHT22;395;48.132;11.608;2023-02-28T19:04:23;4.60;1.00
827;DHT22;395;48.132;11.608;2023-02-28T19:06:48;4.60;1.00
827;DHT22;395;48.132;11.608;2023-02-28T19:09:14;4.60;1.00
827;DHT22;395;48.132;11.608;2023-02-28T19:11:40;4.50;1.00
827;DHT22;395;48.132;11.608;2023-02-28T19:14:06;4.60;1.00
827;DHT22;395;48.132;11.608;2023-02-28T19:16:34;4.60;1.00
827;DHT22;395;48.132;11.608;2023-02-28T19:19:00;4.60;1.00
827;DHT22;395;48.132;11.608;2023-02-28T19:21:26;4.50;1.00
827;DHT22;395;48.132;11.608;2023-02-28T19:23:52;4.50;1.00
827;DHT22;395;48.132;11.608;2023-02-28T19:26:20;4.60;1.00
827;DHT22;395;48.132;11.608;2023-02-28T19:28:46;4.60;1.00
827;DHT22;395;48.132;11.608;2023-02-28T19:31:23;4.60;1.00
827;DHT22;395;48.132;11.608;2023-02-28T19:33:49;4.50;1.00
827;DHT22;395;48.132;11.608;2023-02-28T19:36:17;4.50;1.00
827;DHT22;395;48.132;11.608;2023-02-28T19:38:43;4.50;1.00